Time;durP1;ratioP1;P1;durP2;ratioP2;P2;SDS_P1;SDS_P2;PMS_P1;PMS_P2;Temp;Humidity;BMP_temperature;BMP_pressure;BME280_temperature;BME280_humidity;BME280_pressure;Samples;Min_cycle;Max_cycle;Signal;HPM_P1;HPM_P2
2023/05/13 00:02:05;;;;;;;9.60;6.80;;;;;;;13.66;100.00;101953.44;5027408;28;20033;-63
2023/05/13 00:04:30;;;;;;;9.25;7.00;;;;;;;13.63;100.00;101956.66;5028566;28;20040;-64
2023/05/13 00:06:56;;;;;;;7.80;6.30;;;;;;;13.58;100.00;101950.94;5027681;28;20030;-63
2023/05/13 00:09:21;;;;;;;7.03;5.80;;;;;;;13.54;100.00;101943.38;5028351;28;20038;-63
2023/05/13 00:11:46;;;;;;;7.30;6.38;;;;;;;13.49;100.00;101947.66;5028151;28;20396;-63
2023/05/13 00:14:12;;;;;;;6.60;5.95;;;;;;;13.45;100.00;101946.41;5027728;28;20072;-64
2023/05/13 00:16:37;;;;;;;7.88;6.97;;;;;;;13.43;100.00;101948.53;5028464;28;20461;-64
2023/05/13 00:19:02;;;;;;;7.30;6.60;;;;;;;13.40;100.00;101946.22;5027438;28;20056;-64
2023/05/13 00:21:28;;;;;;;8.00;6.40;;;;;;;13.36;100.00;101938.59;5027475;28;20025;-64
2023/05/13 00:23:53;;;;;;;7.47;6.47;;;;;;;13.33;100.00;101939.91;5027871;28;20389;-64
2023/05/13 00:26:18;;;;;;;8.23;6.13;;;;;;;13.29;100.00;101937.81;5028074;28;20033;-64
2023/05/13 00:28:44;;;;;;;8.18;6.40;;;;;;;13.27;100.00;101940.78;5028321;28;20048;-63
2023/05/13 00:31:09;;;;;;;8.18;6.72;;;;;;;13.27;100.00;101940.78;5027562;28;20022;-63
2023/05/13 00:33:35;;;;;;;7.10;6.30;;;;;;;13.26;100.00;101941.84;5028286;28;20120;-63
2023/05/13 00:36:01;;;;;;;7.88;6.53;;;;;;;13.26;100.00;101941.84;5026260;28;20082;-64
2023/05/13 00:38:26;;;;;;;7.78;6.47;;;;;;;13.28;100.00;101942.50;5027305;28;20029;-64
2023/05/13 00:40:51;;;;;;;8.52;6.55;;;;;;;13.24;100.00;101947.59;5026575;28;20049;-63
2023/05/13 00:43:16;;;;;;;6.53;5.93;;;;;;;13.21;100.00;101949.91;5027862;28;20034;-63
2023/05/13 00:45:42;;;;;;;7.07;6.38;;;;;;;13.16;100.00;101945.06;5027363;28;20033;-64
2023/05/13 00:48:08;;;;;;;7.68;6.57;;;;;;;13.16;100.00;101946.97;5025648;28;20029;-64
2023/05/13 00:50:34;;;;;;;7.40;6.25;;;;;;;13.14;100.00;101947.19;5027808;28;20491;-63
2023/05/13 00:53:02;;;;;;;7.20;6.50;;;;;;;13.12;100.00;101948.47;5026501;28;20387;-64
2023/05/13 00:55:27;;;;;;;9.77;6.72;;;;;;;13.14;100.00;101951.88;5025673;28;20029;-64
2023/05/13 00:57:52;;;;;;;7.80;6.68;;;;;;;13.09;100.00;101949.78;5026736;28;20083;-63
2023/05/13 01:00:18;;;;;;;7.07;6.38;;;;;;;13.04;100.00;101959.78;5027170;28;20039;-64
2023/05/13 01:02:58;;;;;;;7.07;6.38;;;;;;;13.01;100.00;101960.22;5027260;28;20028;-63
2023/05/13 01:05:50;;;;;;;7.90;6.40;;;;;;;13.00;100.00;101953.84;5027504;28;20388;-63
2023/05/13 01:08:53;;;;;;;7.18;6.30;;;;;;;12.99;100.00;101955.75;5027314;28;20044;-63
2023/05/13 01:11:34;;;;;;;7.15;6.45;;;;;;;12.93;100.00;101958.56;4965909;28;20168;-63
2023/05/13 01:14:10;;;;;;;7.68;6.20;;;;;;;12.87;100.00;101951.97;5021770;28;20179;-64
2023/05/13 01:16:48;;;;;;;8.60;6.15;;;;;;;12.81;100.00;101952.88;5017519;28;20026;-64
2023/05/13 01:19:48;;;;;;;8.82;6.13;;;;;;;12.83;100.00;101948.00;5024550;28;20759;-63
2023/05/13 01:22:13;;;;;;;7.25;5.72;;;;;;;12.78;100.00;101949.72;5025523;28;20048;-66
2023/05/13 01:24:39;;;;;;;7.47;6.43;;;;;;;12.74;100.00;101946.53;5027209;28;20026;-63
2023/05/13 01:27:05;;;;;;;6.97;5.85;;;;;;;12.69;100.00;101944.44;5020911;28;20033;-63
2023/05/13 01:29:30;;;;;;;6.43;5.70;;;;;;;12.69;100.00;101946.34;5021135;28;20037;-64
2023/05/13 01:31:57;;;;;;;6.50;5.88;;;;;;;12.62;100.00;101940.88;5024557;28;20030;-63
2023/05/13 01:34:25;;;;;;;7.57;6.10;;;;;;;12.61;100.00;101943.81;5026814;28;20160;-65
2023/05/13 01:36:50;;;;;;;7.47;5.90;;;;;;;12.55;100.00;101945.53;5023271;28;20030;-65
2023/05/13 01:39:18;;;;;;;8.25;6.22;;;;;;;12.50;100.00;101948.09;5022807;28;20025;-64
2023/05/13 01:41:43;;;;;;;6.35;5.68;;;;;;;12.47;100.00;101951.31;5026539;28;20119;-63
2023/05/13 01:44:09;;;;;;;7.03;6.32;;;;;;;12.43;100.00;101950.88;5026804;28;20183;-65
2023/05/13 01:46:34;;;;;;;6.40;5.72;;;;;;;12.44;100.00;101952.56;5026577;28;20048;-64
2023/05/13 01:48:59;;;;;;;8.15;6.47;;;;;;;12.43;100.00;101950.88;5025936;28;20082;-63
2023/05/13 01:51:25;;;;;;;6.68;5.90;;;;;;;12.38;100.00;101947.94;5025735;28;20033;-63
2023/05/13 01:53:50;;;;;;;6.70;5.95;;;;;;;12.40;100.00;101947.72;5027210;28;20035;-65
2023/05/13 01:56:15;;;;;;;6.53;5.93;;;;;;;12.39;100.00;101952.38;5026402;28;20044;-63
2023/05/13 01:58:41;;;;;;;7.60;6.13;;;;;;;12.36;100.00;101955.56;5023837;28;20029;-64
2023/05/13 02:01:06;;;;;;;6.82;5.72;;;;;;;12.32;100.00;101957.06;5026809;28;20021;-66
2023/05/13 02:03:31;;;;;;;7.00;6.30;;;;;;;12.29;100.00;101945.63;5026847;28;20036;-66
2023/05/13 02:05:56;;;;;;;6.88;6.15;;;;;;;12.25;100.00;101953.47;5024977;28;20026;-66
2023/05/13 02:08:24;;;;;;;7.82;5.80;;;;;;;12.22;100.00;101951.16;5028923;28;20546;-65
2023/05/13 02:10:59;;;;;;;7.55;6.47;;;;;;;12.19;100.00;101951.56;5030516;28;20052;-64
2023/05/13 02:13:25;;;;;;;7.15;6.20;;;;;;;12.17;100.00;101959.22;5030229;28;20069;-63
2023/05/13 02:15:51;;;;;;;8.43;6.60;;;;;;;12.12;100.00;101951.59;5030848;28;20025;-63
2023/05/13 02:18:16;;;;;;;7.43;5.85;;;;;;;12.07;100.00;101951.38;5030597;28;20040;-67
2023/05/13 02:20:41;;;;;;;6.63;5.97;;;;;;;12.03;100.00;101957.53;5030488;28;20048;-64
2023/05/13 02:23:07;;;;;;;9.45;6.85;;;;;;;11.95;100.00;101950.31;5029517;28;20407;-63
2023/05/13 02:25:32;;;;;;;8.63;7.15;;;;;;;11.91;100.00;101960.94;5030888;28;20041;-64
2023/05/13 02:27:58;;;;;;;7.45;6.60;;;;;;;11.86;100.00;101949.72;5029029;28;20021;-65
2023/05/13 02:30:25;;;;;;;8.15;6.30;;;;;;;11.79;100.00;101957.06;5030636;28;20036;-64
2023/05/13 02:32:52;;;;;;;9.15;6.90;;;;;;;11.78;100.00;101960.88;5030772;28;20452;-64
2023/05/13 02:35:17;;;;;;;7.70;6.60;;;;;;;11.70;100.00;101959.19;5030656;28;20030;-64
2023/05/13 02:37:43;;;;;;;8.45;6.47;;;;;;;11.64;100.00;101956.44;5028180;28;20026;-64
2023/05/13 02:40:08;;;;;;;7.38;6.47;;;;;;;11.59;100.00;101956.22;5029927;28;20068;-63
2023/05/13 02:42:34;;;;;;;7.30;6.60;;;;;;;11.53;100.00;101955.16;5030776;28;20088;-64
2023/05/13 02:44:59;;;;;;;8.48;6.93;;;;;;;11.50;100.00;101954.72;5061382;22;20050;-63
2023/05/13 02:47:25;;;;;;;7.68;6.97;;;;;;;11.48;100.00;101943.09;4976635;28;20081;-64
2023/05/13 02:49:50;;;;;;;7.78;6.30;;;;;;;11.44;100.00;101946.25;4985072;28;20037;-64
2023/05/13 02:52:15;;;;;;;7.05;6.40;;;;;;;11.46;100.00;101943.31;4987855;28;20026;-64
2023/05/13 02:54:40;;;;;;;7.95;7.15;;;;;;;11.47;100.00;101946.91;4990261;28;20045;-65
2023/05/13 02:57:06;;;;;;;7.72;6.45;;;;;;;11.47;100.00;101946.91;4989964;28;20037;-64
2023/05/13 02:59:31;;;;;;;8.18;6.00;;;;;;;11.46;100.00;101939.72;4989687;28;20034;-62
2023/05/13 03:01:56;;;;;;;8.77;6.97;;;;;;;11.47;100.00;101946.91;4988347;28;20393;-64
2023/05/13 03:04:21;;;;;;;7.85;7.05;;;;;;;11.43;100.00;101946.47;4989624;28;20042;-64
2023/05/13 03:06:47;;;;;;;7.72;7.03;;;;;;;11.40;100.00;101952.38;4987216;28;20038;-64
2023/05/13 03:09:12;;;;;;;7.63;6.75;;;;;;;11.40;100.00;101944.13;4989753;28;20038;-64
2023/05/13 03:11:37;;;;;;;8.05;7.25;;;;;;;11.35;100.00;101943.91;4989646;28;20034;-63
2023/05/13 03:14:03;;;;;;;7.57;6.85;;;;;;;11.27;100.00;101950.47;4989627;28;20034;-64
2023/05/13 03:16:28;;;;;;;8.05;7.28;;;;;;;11.24;100.00;101942.63;4988366;28;20133;-64
2023/05/13 03:18:53;;;;;;;8.05;7.25;;;;;;;11.20;100.00;101952.34;4988632;28;20035;-64
2023/05/13 03:21:18;;;;;;;8.88;7.65;;;;;;;11.14;100.00;101948.50;4988780;28;20027;-63
2023/05/13 03:23:44;;;;;;;8.30;7.40;;;;;;;11.08;100.00;101943.00;4989589;28;20370;-64
2023/05/13 03:26:09;;;;;;;8.77;7.25;;;;;;;11.05;100.00;101944.28;4988642;28;20113;-64
2023/05/13 03:28:34;;;;;;;9.40;7.13;;;;;;;11.05;100.00;101946.16;4990362;28;20116;-64
2023/05/13 03:31:00;;;;;;;8.23;7.32;;;;;;;10.99;100.00;101952.50;4989770;28;20041;-64
2023/05/13 03:33:25;;;;;;;7.75;6.72;;;;;;;10.99;100.00;101952.50;4990254;28;20025;-64
2023/05/13 03:35:50;;;;;;;9.43;7.63;;;;;;;10.90;100.00;101955.44;4987684;28;20119;-64
2023/05/13 03:38:15;;;;;;;8.15;7.35;;;;;;;10.88;100.00;101953.94;4988378;28;20504;-64
2023/05/13 03:40:41;;;;;;;8.20;6.75;;;;;;;10.84;100.00;101953.50;4990179;28;20030;-65
2023/05/13 03:43:06;;;;;;;8.95;8.05;;;;;;;10.80;100.00;101952.22;4989032;28;20026;-63
2023/05/13 03:45:31;;;;;;;8.07;7.28;;;;;;;10.80;100.00;101952.22;4989472;28;20043;-65
2023/05/13 03:47:56;;;;;;;8.80;7.63;;;;;;;10.76;100.00;101963.84;4987331;28;20393;-64
2023/05/13 03:50:22;;;;;;;9.15;8.13;;;;;;;10.69;100.00;101960.19;4988338;28;20035;-64
2023/05/13 03:52:47;;;;;;;9.35;7.90;;;;;;;10.67;100.00;101963.16;4988811;28;20042;-64
2023/05/13 03:55:13;;;;;;;8.73;7.93;;;;;;;10.67;100.00;101970.56;4988624;28;20461;-64
2023/05/13 03:57:40;;;;;;;9.20;8.40;;;;;;;10.63;100.00;101964.59;4987174;28;20034;-64
2023/05/13 04:00:06;;;;;;;9.52;8.43;;;;;;;10.59;100.00;101966.06;4989497;28;20018;-64
2023/05/13 04:02:32;;;;;;;8.80;8.00;;;;;;;10.60;100.00;101956.78;4989136;28;20441;-64
2023/05/13 04:04:57;;;;;;;9.27;8.38;;;;;;;10.57;100.00;101957.19;4987438;28;20040;-64
2023/05/13 04:07:22;;;;;;;9.00;8.10;;;;;;;10.55;100.00;101962.91;4985938;28;20456;-64
2023/05/13 04:09:47;;;;;;;9.15;8.18;;;;;;;10.52;100.00;101963.28;4989786;28;20057;-64
2023/05/13 04:12:14;;;;;;;8.82;7.95;;;;;;;10.49;100.00;101968.31;4988884;28;20034;-64
2023/05/13 04:14:39;;;;;;;10.80;8.45;;;;;;;10.50;100.00;101967.31;4988687;28;20038;-63
2023/05/13 04:17:05;;;;;;;9.00;8.10;;;;;;;10.49;100.00;101962.84;4987495;28;20373;-64
2023/05/13 04:19:30;;;;;;;9.13;8.30;;;;;;;10.49;100.00;101968.31;4988280;28;20030;-64
2023/05/13 04:21:55;;;;;;;9.57;8.57;;;;;;;10.52;100.00;101965.19;4987720;28;20031;-64
2023/05/13 04:24:20;;;;;;;9.30;8.40;;;;;;;10.48;100.00;101970.22;4989287;28;20054;-64
2023/05/13 04:26:46;;;;;;;9.07;8.18;;;;;;;10.52;100.00;101959.69;4988444;28;20401;-64
2023/05/13 04:29:11;;;;;;;9.65;8.38;;;;;;;10.55;100.00;101971.13;4988497;28;20030;-63
2023/05/13 04:31:36;;;;;;;9.05;8.15;;;;;;;10.56;100.00;101974.72;4987975;28;20225;-64
2023/05/13 04:34:02;;;;;;;10.63;9.13;;;;;;;10.61;100.00;101975.81;4988126;28;20022;-64
2023/05/13 04:36:27;;;;;;;9.55;8.60;;;;;;;10.65;100.00;101977.09;4985202;28;20092;-64
2023/05/13 04:38:54;;;;;;;9.18;8.27;;;;;;;10.68;100.00;101972.25;4988531;28;20081;-64
2023/05/13 04:41:20;;;;;;;9.30;8.32;;;;;;;10.70;100.00;101982.00;4986310;28;20487;-64
2023/05/13 04:43:45;;;;;;;9.60;8.80;;;;;;;10.75;100.00;101982.22;4989302;28;20018;-64
2023/05/13 04:46:10;;;;;;;9.48;8.55;;;;;;;10.78;100.00;101986.44;4986807;28;20034;-64
2023/05/13 04:48:35;;;;;;;9.63;8.73;;;;;;;10.82;100.00;101985.84;4988208;28;20073;-64
2023/05/13 04:51:01;;;;;;;10.77;8.40;;;;;;;10.86;100.00;101978.03;4987028;28;20421;-64
2023/05/13 04:53:26;;;;;;;9.50;8.60;;;;;;;10.91;100.00;101984.63;4986850;28;20023;-63
2023/05/13 04:55:56;;;;;;;9.88;8.93;;;;;;;10.96;100.00;101985.91;4987105;28;20032;-64
2023/05/13 04:58:21;;;;;;;10.05;9.05;;;;;;;10.96;100.00;101983.16;4987631;28;20057;-63
2023/05/13 05:00:46;;;;;;;10.27;8.45;;;;;;;10.99;100.00;101985.47;4987755;28;20057;-63
2023/05/13 05:03:11;;;;;;;8.77;7.88;;;;;;;11.00;100.00;101989.91;4987040;28;20745;-64
2023/05/13 05:05:37;;;;;;;9.68;8.77;;;;;;;11.00;100.00;101984.41;4984718;28;20039;-64
2023/05/13 05:08:02;;;;;;;10.02;8.98;;;;;;;11.01;100.00;101994.38;4986108;28;20026;-64
2023/05/13 05:10:27;;;;;;;10.60;9.07;;;;;;;11.02;100.00;101993.31;4984387;28;20089;-64
2023/05/13 05:12:53;;;;;;;10.10;8.90;;;;;;;11.04;100.00;101997.56;4986673;28;20019;-64
2023/05/13 05:15:18;;;;;;;10.05;9.07;;;;;;;11.07;100.00;101993.56;4985215;28;20057;-64
2023/05/13 05:17:44;;;;;;;10.10;9.10;;;;;;;11.08;100.00;101998.84;4986004;28;20066;-64
2023/05/13 05:20:10;;;;;;;9.95;9.05;;;;;;;11.14;100.00;101999.91;4986489;28;20050;-64
2023/05/13 05:22:40;;;;;;;10.10;8.93;;;;;;;11.23;100.00;102000.59;4986123;28;20030;-64
2023/05/13 05:25:06;;;;;;;10.50;9.60;;;;;;;11.30;100.00;102001.44;4986318;28;20058;-64
2023/05/13 05:27:31;;;;;;;11.10;9.95;;;;;;;11.37;100.00;102005.06;4986867;28;20140;-63
2023/05/13 05:29:56;;;;;;;10.07;9.18;;;;;;;11.40;100.00;102000.00;4986426;28;20061;-63
2023/05/13 05:32:22;;;;;;;12.43;9.67;;;;;;;11.42;100.00;102006.16;4983544;28;20034;-65
2023/05/13 05:34:47;;;;;;;10.68;9.52;;;;;;;11.47;100.00;102007.44;4983356;28;20297;-64
2023/05/13 05:37:13;;;;;;;10.65;9.57;;;;;;;11.48;100.00;102014.63;4984845;28;20100;-64
2023/05/13 05:39:39;;;;;;;10.80;9.75;;;;;;;11.50;100.00;102012.50;4986246;28;20037;-64
2023/05/13 05:42:06;;;;;;;10.90;9.88;;;;;;;11.52;100.00;102013.16;4970672;28;20031;-64
2023/05/13 05:44:31;;;;;;;11.38;10.38;;;;;;;11.52;100.00;102013.16;4977313;28;20031;-64
2023/05/13 05:46:56;;;;;;;11.88;10.68;;;;;;;11.48;100.00;102015.47;4983733;28;20031;-64
2023/05/13 05:49:22;;;;;;;12.02;10.88;;;;;;;11.51;100.00;102008.72;4984930;28;20097;-64
2023/05/13 05:51:47;;;;;;;10.75;9.63;;;;;;;11.56;100.00;102018.03;4986551;28;20026;-64
2023/05/13 05:54:12;;;;;;;11.35;10.15;;;;;;;11.62;100.00;102016.34;4985464;28;20034;-64
2023/05/13 05:56:37;;;;;;;11.38;10.27;;;;;;;11.68;100.00;102018.25;4986967;28;20026;-64
2023/05/13 05:59:03;;;;;;;11.90;10.82;;;;;;;11.73;100.00;102018.47;4984850;28;20469;-63
2023/05/13 06:01:35;;;;;;;11.10;10.10;;;;;;;11.77;100.00;102013.41;4985575;28;20070;-64
2023/05/13 06:04:00;;;;;;;11.70;10.50;;;;;;;11.83;100.00;102035.47;4986115;28;20497;-64
2023/05/13 06:06:25;;;;;;;12.30;10.60;;;;;;;11.90;100.00;102028.03;4985464;28;20077;-64
2023/05/13 06:08:51;;;;;;;12.02;10.93;;;;;;;11.99;100.00;102027.84;4983978;28;20069;-64
2023/05/13 06:11:16;;;;;;;12.33;11.13;;;;;;;12.03;100.00;102029.13;4985994;28;20026;-64
2023/05/13 06:13:42;;;;;;;12.07;10.90;;;;;;;12.03;100.00;102021.72;4984501;28;20388;-65
2023/05/13 06:16:08;;;;;;;11.77;10.68;;;;;;;12.08;100.00;102029.34;4986234;28;20042;-64
2023/05/13 06:18:33;;;;;;;11.95;10.85;;;;;;;12.08;100.00;102029.34;4986988;28;20381;-64
2023/05/13 06:20:59;;;;;;;12.18;10.98;;;;;;;12.09;100.00;102036.53;4985181;28;20128;-64
2023/05/13 06:23:24;;;;;;;12.40;11.30;;;;;;;12.10;100.00;102032.72;4987312;28;20073;-64
2023/05/13 06:25:49;;;;;;;11.65;10.55;;;;;;;12.11;100.00;102031.66;4987362;28;20058;-64
2023/05/13 06:28:15;;;;;;;12.45;11.27;;;;;;;12.16;100.00;102034.59;4985538;28;20026;-64
2023/05/13 06:30:40;;;;;;;12.63;11.60;;;;;;;12.24;100.00;102037.16;4986669;28;20105;-63
2023/05/13 06:33:09;;;;;;;12.63;11.52;;;;;;;12.25;100.00;102044.34;4987307;28;20037;-63
2023/05/13 06:35:34;;;;;;;;;;;;;;;12.39;100.00;102040.53;4978668;28;20034;-64
2023/05/13 06:37:59;;;;;;;11.97;10.87;;;;;;;12.41;100.00;102043.91;4986323;28;19925;-65
2023/05/13 06:40:24;;;;;;;12.48;11.27;;;;;;;12.52;100.00;102047.97;4987322;28;20054;-64
2023/05/13 06:42:50;;;;;;;12.75;11.55;;;;;;;12.62;100.00;102041.97;4987389;28;20084;-64
2023/05/13 06:45:15;;;;;;;11.52;10.45;;;;;;;12.76;100.00;102046.41;4983900;28;20084;-64
2023/05/13 06:47:40;;;;;;;12.23;11.20;;;;;;;12.89;100.00;102034.50;4987218;28;20465;-63
2023/05/13 06:50:06;;;;;;;12.52;11.32;;;;;;;13.07;100.00;102039.31;4986218;28;20110;-64
2023/05/13 06:52:31;;;;;;;12.27;11.18;;;;;;;13.27;100.00;102047.53;4984529;28;20041;-63
2023/05/13 06:54:58;;;;;;;12.48;10.88;;;;;;;13.48;100.00;102044.44;4985945;28;20037;-64
2023/05/13 06:57:24;;;;;;;11.82;10.77;;;;;;;13.59;100.00;102045.69;4989960;28;20032;-64
2023/05/13 06:59:49;;;;;;;12.57;11.38;;;;;;;13.64;100.00;102054.16;4990129;28;20030;-64
2023/05/13 07:02:14;;;;;;;12.48;11.13;;;;;;;13.66;100.00;102038.19;4990373;28;20026;-64
2023/05/13 07:04:39;;;;;;;11.18;10.07;;;;;;;13.65;100.00;102039.25;4990382;28;20018;-63
2023/05/13 07:07:05;;;;;;;11.50;10.32;;;;;;;13.55;100.00;102047.19;4988809;28;20338;-64
2023/05/13 07:09:31;;;;;;;10.85;9.85;;;;;;;13.52;100.00;102050.38;4990275;28;20045;-64
2023/05/13 07:11:57;;;;;;;10.93;9.82;;;;;;;13.47;100.00;102049.13;5002392;28;20157;-63
2023/05/13 07:14:24;;;;;;;11.27;10.15;;;;;;;13.56;100.00;102035.06;4989790;28;20544;-63
2023/05/13 07:16:50;;;;;;;11.43;10.20;;;;;;;13.75;100.00;102029.41;4990417;28;20100;-63
2023/05/13 07:19:15;;;;;;;11.25;10.15;;;;;;;13.89;100.00;102038.47;4990402;28;20449;-64
2023/05/13 07:21:40;;;;;;;11.68;10.02;;;;;;;14.12;100.00;102032.31;4988998;28;20034;-64
2023/05/13 07:24:06;;;;;;;11.38;10.27;;;;;;;14.31;99.18;102033.22;4989502;28;20388;-64
2023/05/13 07:26:31;;;;;;;11.27;10.27;;;;;;;14.41;100.00;102041.84;4989719;28;20072;-63
2023/05/13 07:28:56;;;;;;;10.52;9.52;;;;;;;14.42;98.71;102038.00;4989607;28;20027;-64
2023/05/13 07:31:22;;;;;;;10.20;9.30;;;;;;;14.38;97.62;102035.91;4989661;28;20044;-64
2023/05/13 07:33:47;;;;;;;10.38;9.32;;;;;;;14.41;98.42;102046.53;4990193;28;20076;-65
2023/05/13 07:36:12;;;;;;;10.27;9.27;;;;;;;14.40;97.07;102042.09;4988404;28;20630;-64
2023/05/13 07:38:37;;;;;;;10.25;9.25;;;;;;;14.51;97.88;102036.69;4989840;28;20041;-64
2023/05/13 07:41:03;;;;;;;10.98;9.88;;;;;;;14.73;97.51;102042.59;4989394;28;20033;-64
2023/05/13 07:43:28;;;;;;;10.85;9.85;;;;;;;14.89;97.10;102043.91;4989861;28;20033;-63
2023/05/13 07:45:54;;;;;;;11.02;9.63;;;;;;;14.96;96.98;102035.56;4989190;28;20074;-64
2023/05/13 07:48:19;;;;;;;10.70;9.63;;;;;;;15.04;96.96;102033.31;4989446;28;20022;-64
2023/05/13 07:50:45;;;;;;;9.80;8.80;;;;;;;15.12;94.54;102039.63;4989077;28;20030;-64
2023/05/13 07:53:11;;;;;;;9.77;8.57;;;;;;;15.24;89.73;102040.53;4988759;28;20125;-63
2023/05/13 07:55:36;;;;;;;9.52;8.50;;;;;;;15.27;92.45;102049.22;4989221;28;20097;-64
2023/05/13 07:58:01;;;;;;;9.60;8.55;;;;;;;15.45;86.89;102044.72;4987988;28;20045;-65
2023/05/13 08:00:27;;;;;;;10.32;8.80;;;;;;;15.41;86.31;102041.59;4989545;28;20030;-64
2023/05/13 08:02:52;;;;;;;10.93;9.85;;;;;;;15.47;92.08;102042.56;4989240;28;20018;-63
2023/05/13 08:05:17;;;;;;;10.77;9.70;;;;;;;15.58;94.23;102041.75;4988125;28;20078;-64
2023/05/13 08:07:42;;;;;;;10.73;9.75;;;;;;;15.75;93.96;102039.19;4988236;28;20481;-63
2023/05/13 08:10:08;;;;;;;11.30;10.02;;;;;;;15.87;89.82;102042.88;5003547;28;20124;-64
2023/05/13 08:12:33;;;;;;;10.98;9.98;;;;;;;15.81;90.45;102038.25;5008242;28;20034;-64
2023/05/13 08:15:02;;;;;;;11.43;10.40;;;;;;;15.70;94.00;102048.22;4987139;28;20085;-64
2023/05/13 08:17:28;;;;;;;11.05;9.95;;;;;;;15.77;95.08;102043.44;4980256;28;20042;-65
2023/05/13 08:19:53;;;;;;;10.70;9.70;;;;;;;16.00;92.42;102048.19;4982977;28;20038;-64
2023/05/13 08:22:18;;;;;;;11.23;10.23;;;;;;;16.23;91.59;102041.00;4982419;28;20038;-63
2023/05/13 08:24:44;;;;;;;11.00;9.98;;;;;;;16.35;91.07;102045.47;4980271;28;20026;-64
2023/05/13 08:27:09;;;;;;;11.13;10.02;;;;;;;16.37;91.80;102050.75;4983325;28;20022;-64
2023/05/13 08:29:34;;;;;;;10.27;9.27;;;;;;;16.57;89.14;102054.03;4984635;28;20460;-64
2023/05/13 08:32:00;;;;;;;10.90;9.80;;;;;;;16.80;89.90;102050.44;4982581;28;20034;-64
2023/05/13 08:34:25;;;;;;;10.30;9.40;;;;;;;16.98;87.93;102049.47;4983095;28;20030;-64
2023/05/13 08:36:50;;;;;;;11.15;10.15;;;;;;;17.04;87.37;102047.63;4981296;28;20109;-65
2023/05/13 08:39:15;;;;;;;9.88;8.88;;;;;;;17.10;88.02;102046.66;4981202;28;20081;-65
2023/05/13 08:41:43;;;;;;;11.13;9.63;;;;;;;17.19;88.47;102053.50;4983403;28;20422;-64
2023/05/13 08:44:11;;;;;;;9.27;8.25;;;;;;;17.16;86.56;102044.81;4982322;28;20034;-64
2023/05/13 08:46:42;;;;;;;10.43;9.43;;;;;;;17.28;89.81;102049.22;4984053;28;20386;-64
2023/05/13 08:49:08;;;;;;;11.35;8.80;;;;;;;17.25;84.14;102040.56;4983637;28;20125;-65
2023/05/13 08:51:34;;;;;;;10.27;9.27;;;;;;;17.27;83.65;102044.78;4981748;28;20117;-65
2023/05/13 08:54:00;;;;;;;9.70;8.65;;;;;;;17.37;84.88;102046.91;4982490;28;20030;-65
2023/05/13 08:56:27;;;;;;;9.10;8.20;;;;;;;17.44;81.06;102044.00;4983558;28;20030;-65
2023/05/13 08:58:53;;;;;;;9.57;8.68;;;;;;;17.47;79.82;102044.34;4980989;28;20026;-65
2023/05/13 09:01:19;;;;;;;9.90;8.88;;;;;;;17.53;81.78;102028.63;4983314;28;20543;-64
2023/05/13 09:03:53;;;;;;;9.07;8.18;;;;;;;17.68;80.19;102039.19;4985065;28;20038;-64
2023/05/13 09:06:19;;;;;;;9.90;8.90;;;;;;;18.15;83.84;102029.50;4982121;28;21555;-65
2023/05/13 09:08:45;;;;;;;9.88;8.25;;;;;;;18.63;78.01;102027.19;4973574;28;20042;-65
2023/05/13 09:11:10;;;;;;;9.95;7.93;;;;;;;19.13;75.67;102035.41;4986281;28;20818;-65
2023/05/13 09:13:36;;;;;;;9.23;8.32;;;;;;;20.03;74.83;102032.25;4980300;28;20042;-65
2023/05/13 09:16:01;;;;;;;8.95;8.15;;;;;;;19.90;72.73;102030.72;4974921;28;20023;-64
2023/05/13 09:18:32;;;;;;;9.23;7.80;;;;;;;19.62;70.99;102035.47;4981264;28;20073;-64
2023/05/13 09:21:22;;;;;;;10.45;7.45;;;;;;;19.58;73.45;102028.69;4978232;28;20547;-65
2023/05/13 09:23:47;;;;;;;8.30;7.20;;;;;;;20.83;67.62;102036.72;4976373;28;20417;-64
2023/05/13 09:26:27;;;;;;;7.82;6.88;;;;;;;23.38;62.84;102038.88;4979260;28;20066;-64
2023/05/13 09:29:22;;;;;;;7.32;6.57;;;;;;;25.71;57.49;102028.50;4976857;28;20022;-65
2023/05/13 09:31:56;;;;;;;7.32;5.90;;;;;;;26.75;48.43;102030.13;4979295;28;20124;-64
2023/05/13 09:34:29;;;;;;;6.97;5.55;;;;;;;27.81;41.37;102029.84;4982080;28;20070;-65
2023/05/13 09:37:00;;;;;;;6.63;5.20;;;;;;;28.25;39.54;102031.00;4978853;28;20534;-64
2023/05/13 09:39:26;;;;;;;6.60;4.95;;;;;;;28.75;39.12;102030.00;4983157;28;20026;-64
2023/05/13 09:41:51;;;;;;;6.70;5.05;;;;;;;29.48;38.93;102022.75;4983143;28;20030;-65
2023/05/13 09:44:17;;;;;;;6.40;5.53;;;;;;;29.61;36.20;102023.81;4980008;28;20073;-65
2023/05/13 09:46:42;;;;;;;8.40;5.25;;;;;;;30.36;37.30;102027.25;4982272;28;20089;-64
2023/05/13 09:49:09;;;;;;;7.68;4.97;;;;;;;30.77;33.62;102029.53;4983997;28;20041;-65
2023/05/13 09:51:34;;;;;;;7.38;4.80;;;;;;;31.07;33.15;102016.16;4983888;28;20441;-65
2023/05/13 09:54:05;;;;;;;6.93;5.22;;;;;;;31.77;35.35;102017.38;4987562;28;20030;-65
2023/05/13 09:56:33;;;;;;;6.15;4.70;;;;;;;31.84;33.52;102008.34;4987357;28;20461;-65
2023/05/13 09:58:59;;;;;;;6.28;4.50;;;;;;;31.92;31.87;102015.13;4987136;28;20101;-64
2023/05/13 10:01:26;;;;;;;6.18;4.20;;;;;;;32.54;31.24;102009.31;4987481;28;20106;-65
2023/05/13 10:03:53;;;;;;;6.37;4.17;;;;;;;33.18;32.47;102004.97;4987440;28;20085;-66
2023/05/13 10:06:22;;;;;;;6.53;3.65;;;;;;;32.98;31.91;101998.22;4986399;28;20112;-65
2023/05/13 10:08:50;;;;;;;7.60;3.70;;;;;;;32.96;29.64;102006.31;4987546;28;20081;-65
2023/05/13 10:11:17;;;;;;;6.93;3.78;;;;;;;33.33;27.31;102000.56;4987522;28;20030;-65
2023/05/13 10:13:48;;;;;;;4.63;3.40;;;;;;;33.31;30.89;101997.25;4987522;28;20031;-64
2023/05/13 10:16:15;;;;;;;4.90;3.70;;;;;;;32.95;28.78;101998.94;4987014;28;20026;-66
2023/05/13 10:18:41;;;;;;;6.83;3.50;;;;;;;32.50;28.32;101991.28;4987244;28;20109;-65
2023/05/13 10:21:07;;;;;;;5.38;4.45;;;;;;;32.97;30.04;101992.91;4985141;28;20823;-65
2023/05/13 10:23:33;;;;;;;4.55;3.50;;;;;;;32.23;28.23;101986.22;4987079;28;20078;-65
2023/05/13 10:25:58;;;;;;;5.07;3.40;;;;;;;32.34;30.69;101987.44;4986452;28;20023;-65
2023/05/13 10:28:25;;;;;;;5.45;3.47;;;;;;;32.58;28.04;101983.00;4988578;28;20528;-65
2023/05/13 10:30:50;;;;;;;4.07;3.10;;;;;;;32.75;29.43;101989.31;4990473;28;20022;-65
2023/05/13 10:33:16;;;;;;;4.00;3.20;;;;;;;33.11;27.06;101981.16;4990778;28;20540;-65
2023/05/13 10:36:06;;;;;;;5.40;3.45;;;;;;;33.22;28.46;101979.47;4990142;28;20053;-64
2023/05/13 10:38:47;;;;;;;5.88;3.30;;;;;;;33.38;29.48;101985.25;4950323;28;20065;-65
2023/05/13 10:41:43;;;;;;;4.65;3.47;;;;;;;33.34;29.68;101973.75;4987287;28;20350;-65
2023/05/13 10:44:09;;;;;;;5.22;2.97;;;;;;;32.92;27.70;101979.72;4970659;28;20753;-65
2023/05/13 10:46:38;;;;;;;5.85;3.08;;;;;;;33.01;27.41;101977.59;4970223;28;20047;-64
2023/05/13 10:49:03;;;;;;;4.60;3.03;;;;;;;32.27;29.90;101984.34;4970881;28;20026;-66
2023/05/13 10:51:28;;;;;;;4.97;2.90;;;;;;;31.33;32.87;101979.16;4970068;28;20031;-65
2023/05/13 10:53:56;;;;;;;4.97;2.88;;;;;;;30.26;34.52;101979.44;4970288;28;20057;-65
2023/05/13 10:56:23;;;;;;;4.47;3.10;;;;;;;28.75;36.96;101974.28;4970984;28;20027;-65
2023/05/13 10:59:02;;;;;;;3.53;2.90;;;;;;;27.62;35.52;101978.31;4970837;28;20030;-65
2023/05/13 11:01:48;;;;;;;5.97;3.00;;;;;;;26.76;39.94;101975.41;4970586;28;20034;-64
2023/05/13 11:04:15;;;;;;;6.00;3.35;;;;;;;26.11;40.21;101973.53;4969542;28;20031;-65
2023/05/13 11:06:43;;;;;;;4.53;2.72;;;;;;;25.95;38.05;101964.50;4969653;28;20572;-66
2023/05/13 11:09:12;;;;;;;4.53;2.35;;;;;;;25.41;35.88;101967.88;4970193;28;20097;-66
2023/05/13 11:11:38;;;;;;;4.82;2.60;;;;;;;24.83;37.10;101969.72;4970319;28;20047;-65
2023/05/13 11:14:18;;;;;;;5.45;2.72;;;;;;;24.91;35.90;101975.84;4969455;28;20486;-65
2023/05/13 11:17:00;;;;;;;4.38;2.63;;;;;;;24.81;41.52;101959.94;4980395;28;20027;-65